Antilla — PJJI — position and weather

sailwx.info

Track history (hours):
 
Tides and Currents Weather Stations Pressure Air Temp Water Temp Dewpoint Dewpoint Depression Visibility Wind Speed Wind Dir Waves Ship Positions

Antilla

Last reported at 2015-Sep-04 04:24 UTC. Time now 2015-Sep-05 14:19 UTC.
Position N 37°39' E 009°55'.

Length 105 m; beam 16 m.

Type: Cargo ship. MMSI: 306511000.

Date/timePositionNaut miles runAvg speedWind from/ knotsBaromVisibWave heightAir tempDewpointWater temp
2015-Sep-04 04:24N 37°39' E 009°55'3712.9
2015-Sep-04 01:32N 37°34' E 010°41'1312.6
2015-Sep-04 00:33N 37°31' E 010°57'1312.7
2015-Sep-03 23:33N 37°28' E 011°12'1312.9
2015-Sep-03 22:33N 37°21' E 011°26'2612.9
2015-Sep-03 20:33N 37°11' E 011°56'1313.1
2015-Sep-03 19:33N 37°06' E 012°11'1313.1
2015-Sep-03 18:33N 37°02' E 012°27'1313.3
2015-Sep-03 17:33N 36°58' E 012°43'1312.7
2015-Sep-03 16:33N 36°55' E 012°58'1312.8
2015-Sep-03 15:33N 36°50' E 013°13'1312.6
2015-Sep-03 14:33N 36°45' E 013°28'1312.8
2015-Sep-03 13:33N 36°41' E 013°43'1512.7
2015-Sep-03 12:23N 36°36' E 013°60'1112.9
2015-Sep-03 11:32N 36°33' E 014°13'1312.9
2015-Sep-03 10:33N 36°28' E 014°28'2612.9
2015-Sep-03 08:32N 36°25' E 014°60'2813.3
2015-Sep-03 06:26N 36°26' E 015°34'1413.7
2015-Sep-03 05:25N 36°26' E 015°52'1213.9
2015-Sep-03 04:32N 36°26' E 016°07'  
2015-Aug-28 23:15N 36°56' E 023°34'913.4
2015-Aug-28 22:33N 37°05' E 023°36'1313.4
2015-Aug-28 21:33N 37°18' E 023°38'1312.7
2015-Aug-28 20:33N 37°31' E 023°41'1212.5
2015-Aug-28 19:33N 37°43' E 023°40'1212.0
2015-Aug-28 18:33N 37°54' E 023°34'0 0.2
2015-Aug-28 17:32N 37°54' E 023°34'0 0.0
2015-Aug-28 16:32N 37°54' E 023°34'0 0.0
2015-Aug-28 15:31N 37°54' E 023°34'0 0.0
2015-Aug-28 14:31N 37°54' E 023°34'0 0.1
2015-Aug-28 13:33N 37°54' E 023°34'6 5.8
2015-Aug-28 12:33N 37°51' E 023°40'1211.9
2015-Aug-28 11:33N 37°40' E 023°47'30512.7
2015-Aug-27 11:33N 40°55' E 028°49'  
Track history (hours):
 
Tides and Currents Weather Stations Pressure Air Temp Water Temp Dewpoint Dewpoint Depression Visibility Wind Speed Wind Dir Waves Ship Positions

Antilla

Last reported at 2015-Sep-04 04:24 UTC. Time now 2015-Sep-05 14:19 UTC.
Position N 37°39' E 009°55'.

Length 105 m; beam 16 m.

Type: Cargo ship. MMSI: 306511000.

Date/timePositionNaut miles runAvg speedWind from/ knotsBaromVisibWave heightAir tempDewpointWater temp
2015-Sep-04 04:24N 37°39' E 009°55'3712.9
2015-Sep-04 01:32N 37°34' E 010°41'1312.6
2015-Sep-04 00:33N 37°31' E 010°57'1312.7
2015-Sep-03 23:33N 37°28' E 011°12'1312.9
2015-Sep-03 22:33N 37°21' E 011°26'2612.9
2015-Sep-03 20:33N 37°11' E 011°56'1313.1
2015-Sep-03 19:33N 37°06' E 012°11'1313.1
2015-Sep-03 18:33N 37°02' E 012°27'1313.3
2015-Sep-03 17:33N 36°58' E 012°43'1312.7
2015-Sep-03 16:33N 36°55' E 012°58'1312.8
2015-Sep-03 15:33N 36°50' E 013°13'1312.6
2015-Sep-03 14:33N 36°45' E 013°28'1312.8
2015-Sep-03 13:33N 36°41' E 013°43'1512.7
2015-Sep-03 12:23N 36°36' E 013°60'1112.9
2015-Sep-03 11:32N 36°33' E 014°13'1312.9
2015-Sep-03 10:33N 36°28' E 014°28'2612.9
2015-Sep-03 08:32N 36°25' E 014°60'2813.3
2015-Sep-03 06:26N 36°26' E 015°34'1413.7
2015-Sep-03 05:25N 36°26' E 015°52'1213.9
2015-Sep-03 04:32N 36°26' E 016°07'  
2015-Aug-28 23:15N 36°56' E 023°34'913.4
2015-Aug-28 22:33N 37°05' E 023°36'1313.4
2015-Aug-28 21:33N 37°18' E 023°38'1312.7
2015-Aug-28 20:33N 37°31' E 023°41'1212.5
2015-Aug-28 19:33N 37°43' E 023°40'1212.0
2015-Aug-28 18:33N 37°54' E 023°34'0 0.2
2015-Aug-28 17:32N 37°54' E 023°34'0 0.0
2015-Aug-28 16:32N 37°54' E 023°34'0 0.0
2015-Aug-28 15:31N 37°54' E 023°34'0 0.0
2015-Aug-28 14:31N 37°54' E 023°34'0 0.1
2015-Aug-28 13:33N 37°54' E 023°34'6 5.8
2015-Aug-28 12:33N 37°51' E 023°40'1211.9
2015-Aug-28 11:33N 37°40' E 023°47'30512.7
2015-Aug-27 11:33N 40°55' E 028°49'  

Dump ship's entire track history